sensor_id;sensor_type;location;lat;lon;timestamp;P1;durP1;ratioP1;P2;durP2;ratioP2
24285;SDS011;26641;45.416;10.992;2023-05-23T00:02:24;10.73;;;8.43;;
24285;SDS011;26641;45.416;10.992;2023-05-23T00:04:50;10.75;;;8.45;;
24285;SDS011;26641;45.416;10.992;2023-05-23T00:07:16;9.77;;;7.95;;
24285;SDS011;26641;45.416;10.992;2023-05-23T00:09:42;8.95;;;8.02;;
24285;SDS011;26641;45.416;10.992;2023-05-23T00:12:09;11.07;;;8.25;;
24285;SDS011;26641;45.416;10.992;2023-05-23T00:14:34;8.90;;;7.80;;
24285;SDS011;26641;45.416;10.992;2023-05-23T00:17:00;12.98;;;8.25;;
24285;SDS011;26641;45.416;10.992;2023-05-23T00:19:26;9.82;;;7.50;;
24285;SDS011;26641;45.416;10.992;2023-05-23T00:21:52;11.65;;;8.68;;
24285;SDS011;26641;45.416;10.992;2023-05-23T00:24:20;9.02;;;7.70;;
24285;SDS011;26641;45.416;10.992;2023-05-23T00:26:47;9.88;;;7.55;;
24285;SDS011;26641;45.416;10.992;2023-05-23T00:29:13;14.35;;;7.97;;
24285;SDS011;26641;45.416;10.992;2023-05-23T00:31:42;13.32;;;8.52;;
24285;SDS011;26641;45.416;10.992;2023-05-23T00:34:14;10.77;;;7.95;;
24285;SDS011;26641;45.416;10.992;2023-05-23T00:36:41;10.30;;;7.82;;
24285;SDS011;26641;45.416;10.992;2023-05-23T00:39:08;10.70;;;7.85;;
24285;SDS011;26641;45.416;10.992;2023-05-23T00:41:41;9.40;;;7.70;;
24285;SDS011;26641;45.416;10.992;2023-05-23T00:44:07;10.15;;;8.38;;
24285;SDS011;26641;45.416;10.992;2023-05-23T00:46:33;10.50;;;8.25;;
24285;SDS011;26641;45.416;10.992;2023-05-23T00:49:00;9.43;;;8.10;;
24285;SDS011;26641;45.416;10.992;2023-05-23T00:51:26;9.57;;;7.95;;
24285;SDS011;26641;45.416;10.992;2023-05-23T00:53:53;8.60;;;7.72;;
24285;SDS011;26641;45.416;10.992;2023-05-23T00:56:19;9.43;;;7.85;;
24285;SDS011;26641;45.416;10.992;2023-05-23T00:58:45;8.85;;;7.38;;
24285;SDS011;26641;45.416;10.992;2023-05-23T01:01:12;8.88;;;7.38;;
24285;SDS011;26641;45.416;10.992;2023-05-23T01:03:39;10.48;;;7.18;;
24285;SDS011;26641;45.416;10.992;2023-05-23T01:06:05;9.30;;;7.53;;
24285;SDS011;26641;45.416;10.992;2023-05-23T01:08:31;10.00;;;7.78;;
24285;SDS011;26641;45.416;10.992;2023-05-23T01:10:59;9.82;;;7.10;;
24285;SDS011;26641;45.416;10.992;2023-05-23T01:16:13;8.90;;;7.40;;
24285;SDS011;26641;45.416;10.992;2023-05-23T01:18:57;11.10;;;7.43;;
24285;SDS011;26641;45.416;10.992;2023-05-23T01:21:32;8.45;;;7.07;;
24285;SDS011;26641;45.416;10.992;2023-05-23T01:24:17;9.15;;;7.70;;
24285;SDS011;26641;45.416;10.992;2023-05-23T01:29:53;8.95;;;7.47;;
24285;SDS011;26641;45.416;10.992;2023-05-23T01:32:21;9.25;;;7.32;;
24285;SDS011;26641;45.416;10.992;2023-05-23T01:34:51;9.70;;;7.53;;
24285;SDS011;26641;45.416;10.992;2023-05-23T01:37:21;10.02;;;7.35;;
24285;SDS011;26641;45.416;10.992;2023-05-23T01:39:47;11.07;;;7.03;;
24285;SDS011;26641;45.416;10.992;2023-05-23T01:42:13;8.35;;;7.22;;
24285;SDS011;26641;45.416;10.992;2023-05-23T01:44:39;9.07;;;7.10;;
24285;SDS011;26641;45.416;10.992;2023-05-23T01:47:07;8.70;;;7.40;;
24285;SDS011;26641;45.416;10.992;2023-05-23T01:49:34;9.35;;;7.00;;
24285;SDS011;26641;45.416;10.992;2023-05-23T01:52:01;7.72;;;6.72;;
24285;SDS011;26641;45.416;10.992;2023-05-23T01:54:29;10.40;;;7.32;;
24285;SDS011;26641;45.416;10.992;2023-05-23T01:56:56;9.07;;;7.20;;
24285;SDS011;26641;45.416;10.992;2023-05-23T01:59:23;10.63;;;7.70;;
24285;SDS011;26641;45.416;10.992;2023-05-23T02:01:49;10.63;;;6.95;;
24285;SDS011;26641;45.416;10.992;2023-05-23T02:04:15;8.38;;;6.70;;
24285;SDS011;26641;45.416;10.992;2023-05-23T02:06:41;8.80;;;6.90;;
24285;SDS011;26641;45.416;10.992;2023-05-23T02:09:06;8.07;;;6.90;;
24285;SDS011;26641;45.416;10.992;2023-05-23T02:11:32;8.90;;;7.18;;
24285;SDS011;26641;45.416;10.992;2023-05-23T02:13:59;9.85;;;6.75;;
24285;SDS011;26641;45.416;10.992;2023-05-23T02:16:25;8.32;;;6.72;;
24285;SDS011;26641;45.416;10.992;2023-05-23T02:18:50;8.48;;;6.80;;
24285;SDS011;26641;45.416;10.992;2023-05-23T02:21:17;11.32;;;7.07;;
24285;SDS011;26641;45.416;10.992;2023-05-23T02:23:43;8.63;;;7.10;;
24285;SDS011;26641;45.416;10.992;2023-05-23T02:26:10;7.88;;;6.93;;
24285;SDS011;26641;45.416;10.992;2023-05-23T02:28:40;9.27;;;6.88;;
24285;SDS011;26641;45.416;10.992;2023-05-23T02:31:07;8.18;;;7.32;;
24285;SDS011;26641;45.416;10.992;2023-05-23T02:33:33;10.93;;;7.10;;
24285;SDS011;26641;45.416;10.992;2023-05-23T02:36:02;7.53;;;6.68;;
24285;SDS011;26641;45.416;10.992;2023-05-23T02:38:30;9.13;;;6.72;;
24285;SDS011;26641;45.416;10.992;2023-05-23T02:40:57;7.82;;;6.93;;
24285;SDS011;26641;45.416;10.992;2023-05-23T02:43:23;8.38;;;7.18;;
24285;SDS011;26641;45.416;10.992;2023-05-23T02:45:48;7.68;;;6.45;;
24285;SDS011;26641;45.416;10.992;2023-05-23T02:48:14;7.95;;;6.57;;
24285;SDS011;26641;45.416;10.992;2023-05-23T02:50:40;7.65;;;6.68;;
24285;SDS011;26641;45.416;10.992;2023-05-23T02:53:06;7.47;;;6.68;;
24285;SDS011;26641;45.416;10.992;2023-05-23T02:55:31;8.55;;;7.05;;
24285;SDS011;26641;45.416;10.992;2023-05-23T02:57:57;7.82;;;6.35;;
24285;SDS011;26641;45.416;10.992;2023-05-23T03:00:23;7.85;;;6.20;;
24285;SDS011;26641;45.416;10.992;2023-05-23T03:02:49;7.43;;;6.53;;
24285;SDS011;26641;45.416;10.992;2023-05-23T03:05:16;7.25;;;6.55;;
24285;SDS011;26641;45.416;10.992;2023-05-23T03:07:42;8.07;;;6.40;;
24285;SDS011;26641;45.416;10.992;2023-05-23T03:10:08;7.35;;;6.22;;
24285;SDS011;26641;45.416;10.992;2023-05-23T03:12:35;9.15;;;7.00;;
24285;SDS011;26641;45.416;10.992;2023-05-23T03:15:01;7.60;;;6.80;;
24285;SDS011;26641;45.416;10.992;2023-05-23T03:17:28;7.65;;;6.80;;
24285;SDS011;26641;45.416;10.992;2023-05-23T03:19:54;9.63;;;6.15;;
24285;SDS011;26641;45.416;10.992;2023-05-23T03:22:19;7.60;;;6.25;;
24285;SDS011;26641;45.416;10.992;2023-05-23T03:24:46;7.57;;;6.32;;
24285;SDS011;26641;45.416;10.992;2023-05-23T03:27:12;7.80;;;6.65;;
24285;SDS011;26641;45.416;10.992;2023-05-23T03:29:38;7.78;;;6.60;;
24285;SDS011;26641;45.416;10.992;2023-05-23T03:32:04;7.13;;;6.43;;
24285;SDS011;26641;45.416;10.992;2023-05-23T03:34:31;8.55;;;6.57;;
24285;SDS011;26641;45.416;10.992;2023-05-23T03:36:58;9.98;;;6.70;;
24285;SDS011;26641;45.416;10.992;2023-05-23T03:39:27;8.13;;;6.20;;
24285;SDS011;26641;45.416;10.992;2023-05-23T03:41:54;7.45;;;6.60;;
24285;SDS011;26641;45.416;10.992;2023-05-23T03:44:20;7.65;;;6.72;;
24285;SDS011;26641;45.416;10.992;2023-05-23T03:46:49;9.57;;;6.55;;
24285;SDS011;26641;45.416;10.992;2023-05-23T03:49:15;7.50;;;5.72;;
24285;SDS011;26641;45.416;10.992;2023-05-23T03:51:41;7.13;;;6.32;;
24285;SDS011;26641;45.416;10.992;2023-05-23T03:54:08;7.25;;;6.28;;
24285;SDS011;26641;45.416;10.992;2023-05-23T03:56:34;7.32;;;6.20;;
24285;SDS011;26641;45.416;10.992;2023-05-23T03:59:00;8.45;;;6.40;;
24285;SDS011;26641;45.416;10.992;2023-05-23T04:01:26;7.30;;;5.53;;
24285;SDS011;26641;45.416;10.992;2023-05-23T04:03:51;7.70;;;6.50;;
24285;SDS011;26641;45.416;10.992;2023-05-23T04:06:17;6.93;;;5.93;;
24285;SDS011;26641;45.416;10.992;2023-05-23T04:08:44;8.02;;;6.07;;
24285;SDS011;26641;45.416;10.992;2023-05-23T04:11:10;11.02;;;6.50;;
24285;SDS011;26641;45.416;10.992;2023-05-23T04:13:36;7.68;;;5.78;;
24285;SDS011;26641;45.416;10.992;2023-05-23T04:16:02;7.05;;;6.07;;
24285;SDS011;26641;45.416;10.992;2023-05-23T04:18:32;8.25;;;6.43;;
24285;SDS011;26641;45.416;10.992;2023-05-23T04:20:58;7.32;;;6.35;;
24285;SDS011;26641;45.416;10.992;2023-05-23T04:23:24;7.50;;;6.07;;
24285;SDS011;26641;45.416;10.992;2023-05-23T04:25:50;7.75;;;5.57;;
24285;SDS011;26641;45.416;10.992;2023-05-23T04:28:16;6.70;;;5.75;;
24285;SDS011;26641;45.416;10.992;2023-05-23T04:30:43;7.55;;;6.10;;
24285;SDS011;26641;45.416;10.992;2023-05-23T04:33:09;14.35;;;5.85;;
24285;SDS011;26641;45.416;10.992;2023-05-23T04:35:35;12.85;;;6.38;;
24285;SDS011;26641;45.416;10.992;2023-05-23T04:38:04;8.27;;;6.00;;
24285;SDS011;26641;45.416;10.992;2023-05-23T04:40:30;7.20;;;6.18;;
24285;SDS011;26641;45.416;10.992;2023-05-23T04:42:56;13.25;;;6.85;;
24285;SDS011;26641;45.416;10.992;2023-05-23T04:45:22;9.75;;;6.65;;
24285;SDS011;26641;45.416;10.992;2023-05-23T04:47:48;7.05;;;6.05;;
24285;SDS011;26641;45.416;10.992;2023-05-23T04:50:14;9.18;;;6.25;;
24285;SDS011;26641;45.416;10.992;2023-05-23T04:52:40;8.90;;;6.22;;
24285;SDS011;26641;45.416;10.992;2023-05-23T04:55:07;7.63;;;5.57;;
24285;SDS011;26641;45.416;10.992;2023-05-23T04:57:33;6.75;;;5.60;;
24285;SDS011;26641;45.416;10.992;2023-05-23T04:59:59;7.47;;;6.05;;
24285;SDS011;26641;45.416;10.992;2023-05-23T05:02:26;6.63;;;5.82;;
24285;SDS011;26641;45.416;10.992;2023-05-23T05:04:52;8.10;;;6.00;;
24285;SDS011;26641;45.416;10.992;2023-05-23T05:07:18;8.52;;;6.05;;
24285;SDS011;26641;45.416;10.992;2023-05-23T05:09:44;6.47;;;5.35;;
24285;SDS011;26641;45.416;10.992;2023-05-23T05:12:10;7.15;;;5.85;;
24285;SDS011;26641;45.416;10.992;2023-05-23T05:14:36;11.40;;;5.80;;
24285;SDS011;26641;45.416;10.992;2023-05-23T05:17:02;9.52;;;5.82;;
24285;SDS011;26641;45.416;10.992;2023-05-23T05:19:28;6.85;;;5.30;;
24285;SDS011;26641;45.416;10.992;2023-05-23T05:21:55;7.68;;;6.10;;
24285;SDS011;26641;45.416;10.992;2023-05-23T05:24:22;7.45;;;5.53;;
24285;SDS011;26641;45.416;10.992;2023-05-23T05:26:48;6.60;;;4.82;;
24285;SDS011;26641;45.416;10.992;2023-05-23T05:29:14;9.00;;;5.97;;
24285;SDS011;26641;45.416;10.992;2023-05-23T05:31:40;9.13;;;5.45;;
24285;SDS011;26641;45.416;10.992;2023-05-23T05:34:07;9.20;;;5.93;;
24285;SDS011;26641;45.416;10.992;2023-05-23T05:36:33;9.25;;;6.03;;
24285;SDS011;26641;45.416;10.992;2023-05-23T05:38:59;6.70;;;5.65;;
24285;SDS011;26641;45.416;10.992;2023-05-23T05:41:25;14.68;;;5.72;;
24285;SDS011;26641;45.416;10.992;2023-05-23T05:43:51;6.60;;;5.75;;
24285;SDS011;26641;45.416;10.992;2023-05-23T05:46:17;7.03;;;5.50;;
24285;SDS011;26641;45.416;10.992;2023-05-23T05:48:44;7.63;;;5.88;;
24285;SDS011;26641;45.416;10.992;2023-05-23T05:51:10;8.95;;;5.97;;
24285;SDS011;26641;45.416;10.992;2023-05-23T05:53:37;6.70;;;5.38;;
24285;SDS011;26641;45.416;10.992;2023-05-23T05:56:03;6.45;;;5.35;;
24285;SDS011;26641;45.416;10.992;2023-05-23T05:58:28;6.78;;;5.65;;
24285;SDS011;26641;45.416;10.992;2023-05-23T06:00:54;7.38;;;5.72;;
24285;SDS011;26641;45.416;10.992;2023-05-23T06:03:20;5.75;;;5.15;;
24285;SDS011;26641;45.416;10.992;2023-05-23T06:05:48;6.40;;;5.72;;
24285;SDS011;26641;45.416;10.992;2023-05-23T06:08:14;6.50;;;5.90;;
24285;SDS011;26641;45.416;10.992;2023-05-23T06:10:41;6.75;;;5.60;;
24285;SDS011;26641;45.416;10.992;2023-05-23T06:13:07;7.95;;;5.75;;
24285;SDS011;26641;45.416;10.992;2023-05-23T06:15:33;6.30;;;5.40;;
24285;SDS011;26641;45.416;10.992;2023-05-23T06:17:59;5.75;;;5.15;;
24285;SDS011;26641;45.416;10.992;2023-05-23T06:20:26;9.68;;;5.78;;
24285;SDS011;26641;45.416;10.992;2023-05-23T06:22:52;6.35;;;5.68;;
24285;SDS011;26641;45.416;10.992;2023-05-23T06:25:18;5.80;;;4.82;;
24285;SDS011;26641;45.416;10.992;2023-05-23T06:27:44;5.72;;;5.13;;
24285;SDS011;26641;45.416;10.992;2023-05-23T06:30:11;6.00;;;5.40;;
24285;SDS011;26641;45.416;10.992;2023-05-23T06:32:38;8.07;;;5.65;;
24285;SDS011;26641;45.416;10.992;2023-05-23T06:35:05;6.20;;;5.57;;
24285;SDS011;26641;45.416;10.992;2023-05-23T06:37:31;5.90;;;5.30;;
24285;SDS011;26641;45.416;10.992;2023-05-23T06:39:58;7.85;;;5.38;;
24285;SDS011;26641;45.416;10.992;2023-05-23T06:42:24;7.65;;;5.43;;
24285;SDS011;26641;45.416;10.992;2023-05-23T06:44:49;6.72;;;5.68;;
24285;SDS011;26641;45.416;10.992;2023-05-23T06:47:15;10.25;;;6.15;;
24285;SDS011;26641;45.416;10.992;2023-05-23T06:49:41;10.00;;;7.50;;
24285;SDS011;26641;45.416;10.992;2023-05-23T06:52:07;9.80;;;7.82;;
24285;SDS011;26641;45.416;10.992;2023-05-23T06:54:33;11.60;;;8.20;;
24285;SDS011;26641;45.416;10.992;2023-05-23T06:56:59;14.23;;;9.05;;
24285;SDS011;26641;45.416;10.992;2023-05-23T06:59:25;12.32;;;9.20;;
24285;SDS011;26641;45.416;10.992;2023-05-23T07:01:51;17.10;;;10.45;;
24285;SDS011;26641;45.416;10.992;2023-05-23T07:04:17;15.02;;;11.02;;
24285;SDS011;26641;45.416;10.992;2023-05-23T07:06:43;16.33;;;10.38;;
24285;SDS011;26641;45.416;10.992;2023-05-23T07:09:09;13.07;;;11.05;;
24285;SDS011;26641;45.416;10.992;2023-05-23T07:11:35;13.23;;;9.77;;
24285;SDS011;26641;45.416;10.992;2023-05-23T07:14:03;13.38;;;10.60;;
24285;SDS011;26641;45.416;10.992;2023-05-23T07:16:29;14.75;;;9.50;;
24285;SDS011;26641;45.416;10.992;2023-05-23T07:18:56;14.68;;;9.57;;
24285;SDS011;26641;45.416;10.992;2023-05-23T07:21:22;14.13;;;10.07;;
24285;SDS011;26641;45.416;10.992;2023-05-23T07:23:48;16.85;;;10.63;;
24285;SDS011;26641;45.416;10.992;2023-05-23T07:26:14;22.65;;;10.20;;
24285;SDS011;26641;45.416;10.992;2023-05-23T07:28:40;14.77;;;9.85;;
24285;SDS011;26641;45.416;10.992;2023-05-23T07:31:06;20.25;;;10.13;;
24285;SDS011;26641;45.416;10.992;2023-05-23T07:33:33;12.57;;;9.15;;
24285;SDS011;26641;45.416;10.992;2023-05-23T07:36:00;14.15;;;10.02;;
24285;SDS011;26641;45.416;10.992;2023-05-23T07:38:26;15.60;;;9.95;;
24285;SDS011;26641;45.416;10.992;2023-05-23T07:40:52;22.85;;;10.63;;
24285;SDS011;26641;45.416;10.992;2023-05-23T07:43:19;17.77;;;10.82;;
24285;SDS011;26641;45.416;10.992;2023-05-23T07:45:45;20.55;;;10.40;;
24285;SDS011;26641;45.416;10.992;2023-05-23T07:48:11;22.55;;;10.65;;
24285;SDS011;26641;45.416;10.992;2023-05-23T07:50:40;14.45;;;10.15;;
24285;SDS011;26641;45.416;10.992;2023-05-23T07:53:07;16.23;;;10.05;;
24285;SDS011;26641;45.416;10.992;2023-05-23T07:55:33;18.20;;;10.45;;
24285;SDS011;26641;45.416;10.992;2023-05-23T07:57:59;17.52;;;10.98;;
24285;SDS011;26641;45.416;10.992;2023-05-23T08:00:25;18.80;;;10.75;;
24285;SDS011;26641;45.416;10.992;2023-05-23T08:02:51;21.30;;;11.18;;
24285;SDS011;26641;45.416;10.992;2023-05-23T08:05:17;17.20;;;10.50;;
24285;SDS011;26641;45.416;10.992;2023-05-23T08:07:43;15.27;;;10.02;;
24285;SDS011;26641;45.416;10.992;2023-05-23T08:10:09;16.13;;;9.80;;
24285;SDS011;26641;45.416;10.992;2023-05-23T08:12:35;19.33;;;11.27;;
24285;SDS011;26641;45.416;10.992;2023-05-23T08:15:02;19.33;;;10.20;;
24285;SDS011;26641;45.416;10.992;2023-05-23T08:17:28;14.70;;;10.23;;
24285;SDS011;26641;45.416;10.992;2023-05-23T08:19:55;17.55;;;10.20;;
24285;SDS011;26641;45.416;10.992;2023-05-23T08:22:21;15.02;;;10.07;;
24285;SDS011;26641;45.416;10.992;2023-05-23T08:24:47;21.92;;;11.07;;
24285;SDS011;26641;45.416;10.992;2023-05-23T08:27:13;17.25;;;10.48;;
24285;SDS011;26641;45.416;10.992;2023-05-23T08:29:40;16.50;;;10.38;;
24285;SDS011;26641;45.416;10.992;2023-05-23T08:32:06;13.93;;;9.88;;
24285;SDS011;26641;45.416;10.992;2023-05-23T08:34:32;15.57;;;10.63;;
24285;SDS011;26641;45.416;10.992;2023-05-23T08:36:58;13.50;;;9.98;;
24285;SDS011;26641;45.416;10.992;2023-05-23T08:39:25;18.33;;;10.48;;
24285;SDS011;26641;45.416;10.992;2023-05-23T08:41:51;15.65;;;9.50;;
24285;SDS011;26641;45.416;10.992;2023-05-23T08:44:17;17.60;;;10.65;;
24285;SDS011;26641;45.416;10.992;2023-05-23T08:46:44;15.23;;;10.05;;
24285;SDS011;26641;45.416;10.992;2023-05-23T08:49:12;13.60;;;10.15;;
24285;SDS011;26641;45.416;10.992;2023-05-23T08:51:41;18.30;;;10.40;;
24285;SDS011;26641;45.416;10.992;2023-05-23T08:54:07;15.02;;;10.10;;
24285;SDS011;26641;45.416;10.992;2023-05-23T08:56:35;16.00;;;10.15;;
24285;SDS011;26641;45.416;10.992;2023-05-23T08:59:02;14.57;;;10.10;;
24285;SDS011;26641;45.416;10.992;2023-05-23T09:01:29;13.05;;;9.88;;
24285;SDS011;26641;45.416;10.992;2023-05-23T09:03:57;15.88;;;10.63;;
24285;SDS011;26641;45.416;10.992;2023-05-23T09:06:28;17.80;;;10.40;;
24285;SDS011;26641;45.416;10.992;2023-05-23T09:08:54;14.20;;;10.10;;
24285;SDS011;26641;45.416;10.992;2023-05-23T09:11:20;17.17;;;10.35;;
24285;SDS011;26641;45.416;10.992;2023-05-23T09:13:46;16.58;;;10.30;;
24285;SDS011;26641;45.416;10.992;2023-05-23T09:16:14;16.38;;;10.35;;
24285;SDS011;26641;45.416;10.992;2023-05-23T09:18:44;14.85;;;10.68;;
24285;SDS011;26641;45.416;10.992;2023-05-23T09:21:16;15.77;;;10.88;;
24285;SDS011;26641;45.416;10.992;2023-05-23T09:23:42;20.70;;;11.23;;
24285;SDS011;26641;45.416;10.992;2023-05-23T09:26:09;16.00;;;10.48;;
24285;SDS011;26641;45.416;10.992;2023-05-23T09:28:37;13.05;;;9.98;;
24285;SDS011;26641;45.416;10.992;2023-05-23T09:31:05;17.30;;;10.43;;
24285;SDS011;26641;45.416;10.992;2023-05-23T09:33:39;19.60;;;10.85;;
24285;SDS011;26641;45.416;10.992;2023-05-23T09:36:10;15.40;;;10.70;;
24285;SDS011;26641;45.416;10.992;2023-05-23T09:38:39;17.27;;;10.80;;
24285;SDS011;26641;45.416;10.992;2023-05-23T09:41:07;17.77;;;10.93;;
24285;SDS011;26641;45.416;10.992;2023-05-23T09:43:36;15.73;;;10.20;;
24285;SDS011;26641;45.416;10.992;2023-05-23T09:46:19;15.85;;;10.25;;
24285;SDS011;26641;45.416;10.992;2023-05-23T09:48:46;16.65;;;10.73;;
24285;SDS011;26641;45.416;10.992;2023-05-23T09:51:13;15.68;;;10.35;;
24285;SDS011;26641;45.416;10.992;2023-05-23T09:53:39;17.30;;;10.73;;
24285;SDS011;26641;45.416;10.992;2023-05-23T09:56:05;16.30;;;10.65;;
24285;SDS011;26641;45.416;10.992;2023-05-23T09:58:35;14.23;;;10.30;;
24285;SDS011;26641;45.416;10.992;2023-05-23T10:01:02;14.50;;;10.23;;
24285;SDS011;26641;45.416;10.992;2023-05-23T10:03:44;14.43;;;10.70;;
24285;SDS011;26641;45.416;10.992;2023-05-23T10:06:20;17.88;;;10.85;;
24285;SDS011;26641;45.416;10.992;2023-05-23T10:08:56;16.55;;;11.35;;
24285;SDS011;26641;45.416;10.992;2023-05-23T10:14:04;15.60;;;10.50;;
24285;SDS011;26641;45.416;10.992;2023-05-23T10:19:12;16.38;;;9.98;;
24285;SDS011;26641;45.416;10.992;2023-05-23T10:21:43;16.35;;;10.15;;
24285;SDS011;26641;45.416;10.992;2023-05-23T10:24:14;13.00;;;9.70;;
24285;SDS011;26641;45.416;10.992;2023-05-23T10:26:41;12.73;;;10.40;;
24285;SDS011;26641;45.416;10.992;2023-05-23T10:29:09;18.05;;;10.65;;
24285;SDS011;26641;45.416;10.992;2023-05-23T10:31:35;13.27;;;9.77;;
24285;SDS011;26641;45.416;10.992;2023-05-23T10:42:08;13.65;;;10.00;;
24285;SDS011;26641;45.416;10.992;2023-05-23T10:44:40;16.08;;;10.00;;
24285;SDS011;26641;45.416;10.992;2023-05-23T10:47:06;17.45;;;9.77;;
24285;SDS011;26641;45.416;10.992;2023-05-23T10:49:50;13.32;;;9.70;;
24285;SDS011;26641;45.416;10.992;2023-05-23T10:52:18;13.30;;;9.68;;
24285;SDS011;26641;45.416;10.992;2023-05-23T10:54:46;15.23;;;10.10;;
24285;SDS011;26641;45.416;10.992;2023-05-23T10:57:15;12.35;;;9.40;;
24285;SDS011;26641;45.416;10.992;2023-05-23T10:59:41;14.63;;;10.18;;
24285;SDS011;26641;45.416;10.992;2023-05-23T11:02:13;15.55;;;10.63;;
24285;SDS011;26641;45.416;10.992;2023-05-23T11:04:40;14.60;;;9.88;;
24285;SDS011;26641;45.416;10.992;2023-05-23T11:07:27;13.77;;;10.23;;
24285;SDS011;26641;45.416;10.992;2023-05-23T11:10:03;13.95;;;9.75;;
24285;SDS011;26641;45.416;10.992;2023-05-23T11:12:37;13.98;;;9.57;;
24285;SDS011;26641;45.416;10.992;2023-05-23T11:17:56;12.25;;;9.23;;
24285;SDS011;26641;45.416;10.992;2023-05-23T11:20:23;12.27;;;9.65;;
24285;SDS011;26641;45.416;10.992;2023-05-23T11:22:59;13.73;;;9.63;;
24285;SDS011;26641;45.416;10.992;2023-05-23T11:25:47;14.98;;;9.43;;
24285;SDS011;26641;45.416;10.992;2023-05-23T11:28:14;14.52;;;9.35;;
24285;SDS011;26641;45.416;10.992;2023-05-23T11:30:43;12.38;;;8.98;;
24285;SDS011;26641;45.416;10.992;2023-05-23T11:33:12;20.30;;;9.20;;
24285;SDS011;26641;45.416;10.992;2023-05-23T11:35:39;11.75;;;8.80;;
24285;SDS011;26641;45.416;10.992;2023-05-23T11:38:09;12.45;;;9.50;;
24285;SDS011;26641;45.416;10.992;2023-05-23T11:43:05;11.65;;;9.05;;
24285;SDS011;26641;45.416;10.992;2023-05-23T11:45:36;11.43;;;9.35;;
24285;SDS011;26641;45.416;10.992;2023-05-23T11:48:07;13.48;;;9.13;;
24285;SDS011;26641;45.416;10.992;2023-05-23T11:50:41;10.60;;;8.70;;
24285;SDS011;26641;45.416;10.992;2023-05-23T11:53:15;11.07;;;8.95;;
24285;SDS011;26641;45.416;10.992;2023-05-23T11:55:53;13.23;;;9.15;;
24285;SDS011;26641;45.416;10.992;2023-05-23T11:58:20;11.57;;;8.80;;
24285;SDS011;26641;45.416;10.992;2023-05-23T12:00:46;12.25;;;9.07;;
24285;SDS011;26641;45.416;10.992;2023-05-23T12:03:12;13.05;;;8.75;;
24285;SDS011;26641;45.416;10.992;2023-05-23T12:05:38;12.70;;;8.57;;
24285;SDS011;26641;45.416;10.992;2023-05-23T12:08:04;13.52;;;9.15;;
24285;SDS011;26641;45.416;10.992;2023-05-23T12:10:30;13.15;;;8.95;;
24285;SDS011;26641;45.416;10.992;2023-05-23T12:12:57;10.90;;;8.57;;
24285;SDS011;26641;45.416;10.992;2023-05-23T12:15:26;12.68;;;8.75;;
24285;SDS011;26641;45.416;10.992;2023-05-23T12:17:52;12.27;;;8.98;;
24285;SDS011;26641;45.416;10.992;2023-05-23T12:20:19;12.70;;;8.93;;
24285;SDS011;26641;45.416;10.992;2023-05-23T12:22:45;12.48;;;8.68;;
24285;SDS011;26641;45.416;10.992;2023-05-23T12:25:11;10.18;;;8.57;;
24285;SDS011;26641;45.416;10.992;2023-05-23T12:27:38;11.55;;;8.52;;
24285;SDS011;26641;45.416;10.992;2023-05-23T12:30:09;11.60;;;8.05;;
24285;SDS011;26641;45.416;10.992;2023-05-23T12:32:38;14.15;;;8.63;;
24285;SDS011;26641;45.416;10.992;2023-05-23T12:35:06;11.77;;;8.70;;
24285;SDS011;26641;45.416;10.992;2023-05-23T12:37:40;11.18;;;8.35;;
24285;SDS011;26641;45.416;10.992;2023-05-23T12:40:17;11.27;;;8.23;;
24285;SDS011;26641;45.416;10.992;2023-05-23T12:42:50;9.13;;;7.68;;
24285;SDS011;26641;45.416;10.992;2023-05-23T12:45:21;13.43;;;8.43;;
24285;SDS011;26641;45.416;10.992;2023-05-23T12:47:48;13.07;;;8.30;;
24285;SDS011;26641;45.416;10.992;2023-05-23T12:50:14;11.93;;;8.40;;
24285;SDS011;26641;45.416;10.992;2023-05-23T12:52:40;11.02;;;7.65;;
24285;SDS011;26641;45.416;10.992;2023-05-23T12:55:07;11.00;;;7.90;;
24285;SDS011;26641;45.416;10.992;2023-05-23T12:57:33;11.27;;;8.02;;
24285;SDS011;26641;45.416;10.992;2023-05-23T12:59:59;11.10;;;8.18;;
24285;SDS011;26641;45.416;10.992;2023-05-23T13:02:26;9.90;;;8.07;;
24285;SDS011;26641;45.416;10.992;2023-05-23T13:04:52;10.90;;;8.15;;
24285;SDS011;26641;45.416;10.992;2023-05-23T13:07:19;11.70;;;7.80;;
24285;SDS011;26641;45.416;10.992;2023-05-23T13:09:45;11.20;;;8.25;;
24285;SDS011;26641;45.416;10.992;2023-05-23T13:12:11;11.30;;;7.72;;
24285;SDS011;26641;45.416;10.992;2023-05-23T13:14:37;11.27;;;7.97;;
24285;SDS011;26641;45.416;10.992;2023-05-23T13:17:03;10.50;;;8.02;;
24285;SDS011;26641;45.416;10.992;2023-05-23T13:19:29;16.30;;;7.95;;
24285;SDS011;26641;45.416;10.992;2023-05-23T13:21:56;10.68;;;7.97;;
24285;SDS011;26641;45.416;10.992;2023-05-23T13:24:22;10.35;;;7.78;;
24285;SDS011;26641;45.416;10.992;2023-05-23T13:26:48;13.52;;;8.07;;
24285;SDS011;26641;45.416;10.992;2023-05-23T13:29:14;11.82;;;7.85;;
24285;SDS011;26641;45.416;10.992;2023-05-23T13:31:40;14.77;;;8.15;;
24285;SDS011;26641;45.416;10.992;2023-05-23T13:34:06;13.77;;;8.35;;
24285;SDS011;26641;45.416;10.992;2023-05-23T13:36:32;13.80;;;7.93;;
24285;SDS011;26641;45.416;10.992;2023-05-23T13:38:59;11.60;;;8.30;;
24285;SDS011;26641;45.416;10.992;2023-05-23T13:41:26;15.57;;;8.80;;
24285;SDS011;26641;45.416;10.992;2023-05-23T13:43:52;14.50;;;8.85;;
24285;SDS011;26641;45.416;10.992;2023-05-23T13:46:18;15.90;;;8.60;;
24285;SDS011;26641;45.416;10.992;2023-05-23T13:48:44;12.10;;;8.93;;
24285;SDS011;26641;45.416;10.992;2023-05-23T13:51:10;15.93;;;8.95;;
24285;SDS011;26641;45.416;10.992;2023-05-23T13:53:36;12.10;;;8.68;;
24285;SDS011;26641;45.416;10.992;2023-05-23T13:56:02;12.32;;;9.10;;
24285;SDS011;26641;45.416;10.992;2023-05-23T13:58:28;13.02;;;8.85;;
24285;SDS011;26641;45.416;10.992;2023-05-23T14:00:54;11.85;;;8.70;;
24285;SDS011;26641;45.416;10.992;2023-05-23T14:03:20;13.27;;;8.57;;
24285;SDS011;26641;45.416;10.992;2023-05-23T14:05:45;11.82;;;8.43;;
24285;SDS011;26641;45.416;10.992;2023-05-23T14:08:11;11.98;;;8.23;;
24285;SDS011;26641;45.416;10.992;2023-05-23T14:10:40;12.70;;;8.35;;
24285;SDS011;26641;45.416;10.992;2023-05-23T14:13:06;11.20;;;8.43;;
24285;SDS011;26641;45.416;10.992;2023-05-23T14:15:32;13.57;;;8.23;;
24285;SDS011;26641;45.416;10.992;2023-05-23T14:17:58;14.52;;;8.52;;
24285;SDS011;26641;45.416;10.992;2023-05-23T14:20:27;12.57;;;8.55;;
24285;SDS011;26641;45.416;10.992;2023-05-23T14:22:53;12.55;;;8.18;;
24285;SDS011;26641;45.416;10.992;2023-05-23T14:25:19;11.52;;;7.93;;
24285;SDS011;26641;45.416;10.992;2023-05-23T14:27:45;12.25;;;7.80;;
24285;SDS011;26641;45.416;10.992;2023-05-23T14:30:12;13.32;;;8.23;;
24285;SDS011;26641;45.416;10.992;2023-05-23T14:32:38;10.63;;;7.82;;
24285;SDS011;26641;45.416;10.992;2023-05-23T14:35:05;10.52;;;7.97;;
24285;SDS011;26641;45.416;10.992;2023-05-23T14:37:32;9.70;;;7.55;;
24285;SDS011;26641;45.416;10.992;2023-05-23T14:39:58;10.45;;;7.72;;
24285;SDS011;26641;45.416;10.992;2023-05-23T14:42:24;12.25;;;8.35;;
24285;SDS011;26641;45.416;10.992;2023-05-23T14:44:51;10.18;;;7.40;;
24285;SDS011;26641;45.416;10.992;2023-05-23T14:47:18;11.88;;;7.90;;
24285;SDS011;26641;45.416;10.992;2023-05-23T14:49:44;14.80;;;7.57;;